Time;durP1;ratioP1;P1;durP2;ratioP2;P2;SDS_P1;SDS_P2;PMS_P1;PMS_P2;Temp;Humidity;BMP_temperature;BMP_pressure;BME280_temperature;BME280_humidity;BME280_pressure;Samples;Min_cycle;Max_cycle;Signal;HPM_P1;HPM_P2
2023/07/31 00:00:51;;;;;;;5.88;3.33;;;21.50;51.20;;;;;;4964552;28;20055;-58
2023/07/31 00:03:18;;;;;;;6.30;2.83;;;21.50;51.20;;;;;;4965498;28;20494;-59
2023/07/31 00:05:46;;;;;;;5.65;2.75;;;21.50;51.30;;;;;;4966052;28;20053;-59
2023/07/31 00:08:14;;;;;;;3.88;2.30;;;21.50;51.30;;;;;;4966143;28;20081;-58
2023/07/31 00:10:41;;;;;;;5.38;2.38;;;21.50;51.40;;;;;;4965552;28;20055;-59
2023/07/31 00:13:09;;;;;;;6.90;2.70;;;21.50;51.40;;;;;;4964855;28;20046;-59
2023/07/31 00:15:36;;;;;;;5.50;2.58;;;21.50;51.40;;;;;;4967755;28;20509;-59
2023/07/31 00:18:03;;;;;;;5.47;2.75;;;21.50;51.40;;;;;;4965937;28;20486;-59
2023/07/31 00:20:30;;;;;;;7.28;2.65;;;21.50;51.50;;;;;;4965801;28;20497;-60
2023/07/31 00:22:58;;;;;;;8.10;2.80;;;21.50;51.50;;;;;;4964454;28;20055;-59
2023/07/31 00:25:26;;;;;;;8.55;2.47;;;21.50;51.50;;;;;;4965691;28;20058;-58
2023/07/31 00:27:53;;;;;;;8.10;2.42;;;21.50;51.60;;;;;;4965032;28;20059;-59
2023/07/31 00:30:22;;;;;;;7.43;3.20;;;21.50;51.60;;;;;;4965063;28;20051;-58
2023/07/31 00:32:49;;;;;;;5.05;2.70;;;21.50;51.60;;;;;;4964248;28;20464;-58
2023/07/31 00:35:16;;;;;;;6.18;2.97;;;21.60;51.60;;;;;;4965331;28;20058;-59
2023/07/31 00:37:43;;;;;;;4.65;2.13;;;21.50;51.60;;;;;;4964749;28;20408;-59
2023/07/31 00:40:11;;;;;;;4.82;2.42;;;21.60;51.70;;;;;;4965084;28;20061;-59
2023/07/31 00:42:39;;;;;;;5.88;2.33;;;21.50;51.60;;;;;;4964210;28;20061;-59
2023/07/31 00:45:07;;;;;;;3.72;2.13;;;21.50;51.70;;;;;;4964675;28;20054;-59
2023/07/31 00:47:34;;;;;;;5.72;2.65;;;21.60;51.80;;;;;;4965510;28;20058;-59
2023/07/31 00:50:02;;;;;;;4.35;2.30;;;21.60;51.80;;;;;;4966206;28;20138;-59
2023/07/31 00:52:29;;;;;;;4.97;2.20;;;21.50;51.80;;;;;;4965619;28;20051;-59
2023/07/31 00:54:56;;;;;;;6.28;2.53;;;21.60;51.90;;;;;;4964213;28;20054;-59
2023/07/31 00:57:24;;;;;;;3.88;2.35;;;21.60;51.80;;;;;;4964908;28;20058;-59
2023/07/31 00:59:52;;;;;;;4.80;2.45;;;21.60;51.90;;;;;;4964696;28;20525;-60
2023/07/31 01:02:20;;;;;;;5.20;2.50;;;21.60;51.80;;;;;;4966617;28;20058;-58
2023/07/31 01:04:47;;;;;;;3.47;2.10;;;21.60;51.90;;;;;;4989633;23;20062;-86
2023/07/31 01:07:22;;;;;;;3.47;2.20;;;21.60;51.90;;;;;;4989728;28;20054;-86
2023/07/31 01:09:57;;;;;;;6.03;2.53;;;21.60;52.00;;;;;;4983285;28;20062;-86
2023/07/31 01:12:26;;;;;;;3.50;1.83;;;21.50;52.00;;;;;;4980185;28;20064;-86
2023/07/31 01:15:03;;;;;;;4.70;2.38;;;21.60;52.10;;;;;;4977266;28;20050;-86
2023/07/31 01:17:30;;;;;;;4.18;2.08;;;21.60;52.20;;;;;;4983159;28;20050;-86
2023/07/31 01:20:00;;;;;;;3.75;2.20;;;21.60;52.10;;;;;;4983901;28;20054;-85
2023/07/31 01:22:40;;;;;;;6.22;2.53;;;21.60;52.10;;;;;;4981117;28;20051;-85
2023/07/31 01:25:25;;;;;;;5.38;2.47;;;21.60;52.20;;;;;;4988580;28;20046;-85
2023/07/31 01:28:00;;;;;;;3.92;2.10;;;21.60;52.20;;;;;;4982589;28;20069;-85
2023/07/31 01:30:33;;;;;;;6.80;2.38;;;21.60;52.20;;;;;;4983899;28;20474;-85
2023/07/31 01:33:06;;;;;;;6.10;2.63;;;21.60;52.20;;;;;;4983876;28;20520;-85
2023/07/31 01:35:34;;;;;;;4.50;2.30;;;21.60;52.20;;;;;;4985237;28;20054;-85
2023/07/31 01:38:02;;;;;;;4.60;2.00;;;21.60;52.20;;;;;;4984780;28;20433;-85
2023/07/31 01:40:29;;;;;;;4.50;2.17;;;21.60;52.30;;;;;;4983168;28;20054;-85
2023/07/31 01:42:58;;;;;;;5.00;2.45;;;21.60;52.40;;;;;;4981748;28;20386;-85
2023/07/31 01:45:25;;;;;;;6.13;2.65;;;21.60;52.60;;;;;;4983794;28;20050;-85
2023/07/31 01:47:52;;;;;;;6.57;2.10;;;21.60;52.80;;;;;;4982830;28;20054;-86
2023/07/31 01:50:20;;;;;;;6.45;2.33;;;21.60;53.10;;;;;;4983153;28;20085;-85
2023/07/31 01:52:47;;;;;;;7.05;2.45;;;21.60;53.10;;;;;;4983315;28;20061;-85
2023/07/31 01:55:14;;;;;;;6.38;2.55;;;21.50;53.20;;;;;;4982734;28;20050;-85
2023/07/31 01:57:42;;;;;;;3.22;1.83;;;21.50;53.30;;;;;;4982692;28;20565;-85
2023/07/31 02:00:11;;;;;;;5.45;2.22;;;21.50;53.30;;;;;;4983113;28;20162;-85
2023/07/31 02:02:38;;;;;;;6.15;2.20;;;21.50;53.30;;;;;;4981890;28;20398;-85
2023/07/31 02:05:07;;;;;;;5.05;2.45;;;21.50;53.40;;;;;;4982515;28;20525;-85
2023/07/31 02:07:34;;;;;;;7.65;2.50;;;21.50;53.40;;;;;;4982159;28;20508;-85
2023/07/31 02:10:01;;;;;;;4.70;2.15;;;21.40;53.50;;;;;;4983203;28;20141;-85
2023/07/31 02:12:30;;;;;;;4.93;2.50;;;21.40;53.60;;;;;;4987241;28;20053;-85
2023/07/31 02:14:57;;;;;;;6.10;2.72;;;21.40;53.70;;;;;;4981723;28;20057;-84
2023/07/31 02:17:26;;;;;;;5.32;2.50;;;21.40;53.70;;;;;;4981715;28;20054;-86
2023/07/31 02:19:53;;;;;;;5.25;2.33;;;21.40;53.80;;;;;;4979253;28;20523;-85
2023/07/31 02:22:21;;;;;;;4.45;2.33;;;21.30;53.60;;;;;;4981910;28;20054;-85
2023/07/31 02:24:48;;;;;;;5.65;2.72;;;21.40;53.60;;;;;;4982788;28;20418;-85
2023/07/31 02:27:16;;;;;;;7.07;2.78;;;21.30;54.20;;;;;;4982984;28;20681;-84
2023/07/31 02:29:43;;;;;;;6.90;2.60;;;21.40;53.70;;;;;;4982052;28;20058;-85
2023/07/31 02:32:10;;;;;;;5.75;2.65;;;21.30;53.70;;;;;;4982960;28;20054;-85
2023/07/31 02:34:39;;;;;;;7.40;2.80;;;21.30;53.60;;;;;;4983518;28;20050;-84
2023/07/31 02:37:06;;;;;;;5.45;2.50;;;21.30;53.60;;;;;;4982437;28;20050;-85
2023/07/31 02:39:34;;;;;;;5.28;2.67;;;21.30;53.60;;;;;;4982598;28;20397;-85
2023/07/31 02:42:01;;;;;;;6.28;2.88;;;21.30;53.60;;;;;;4981974;28;20059;-85
2023/07/31 02:44:28;;;;;;;5.15;2.28;;;21.30;53.60;;;;;;4984247;28;20057;-85
2023/07/31 02:46:56;;;;;;;3.42;2.20;;;21.30;53.70;;;;;;4983052;28;20458;-85
2023/07/31 02:49:23;;;;;;;6.15;2.88;;;21.30;53.60;;;;;;4982162;28;20073;-85
2023/07/31 02:51:51;;;;;;;6.22;2.80;;;21.30;53.60;;;;;;4982459;28;20066;-85
2023/07/31 02:54:20;;;;;;;7.90;3.03;;;21.30;53.60;;;;;;4983070;28;20047;-85
2023/07/31 02:56:47;;;;;;;7.18;2.83;;;21.30;53.50;;;;;;4980791;28;20058;-85
2023/07/31 02:59:15;;;;;;;7.40;2.28;;;21.30;53.50;;;;;;4981553;28;20065;-85
2023/07/31 03:01:43;;;;;;;6.60;2.83;;;21.40;53.50;;;;;;4982728;28;20061;-85
2023/07/31 03:04:10;;;;;;;6.68;3.03;;;21.30;53.50;;;;;;4982251;28;20053;-85
2023/07/31 03:06:37;;;;;;;5.45;2.60;;;21.30;53.40;;;;;;4983107;28;20058;-85
2023/07/31 03:09:06;;;;;;;6.63;3.00;;;21.30;53.40;;;;;;4982714;28;20050;-85
2023/07/31 03:11:33;;;;;;;6.15;3.00;;;21.30;53.30;;;;;;4979489;28;20058;-85
2023/07/31 03:14:01;;;;;;;4.88;2.63;;;21.30;53.20;;;;;;4982640;28;20462;-84
2023/07/31 03:16:28;;;;;;;9.95;3.20;;;21.30;53.20;;;;;;4985672;28;20073;-85
2023/07/31 03:18:55;;;;;;;8.18;2.85;;;21.30;53.20;;;;;;4987760;28;20509;-85
2023/07/31 03:21:23;;;;;;;6.30;2.75;;;21.30;53.20;;;;;;4985626;28;20509;-85
2023/07/31 03:23:50;;;;;;;5.32;3.08;;;21.30;53.10;;;;;;4987014;28;20054;-85
2023/07/31 03:26:19;;;;;;;7.00;2.75;;;21.30;53.10;;;;;;4984486;28;20417;-85
2023/07/31 03:28:46;;;;;;;7.10;3.13;;;21.30;53.10;;;;;;4986188;28;20052;-85
2023/07/31 03:31:13;;;;;;;5.05;2.78;;;21.30;53.00;;;;;;4984757;28;20046;-85
2023/07/31 03:33:40;;;;;;;7.28;2.83;;;21.40;53.10;;;;;;4985939;28;20061;-85
2023/07/31 03:36:08;;;;;;;3.15;2.38;;;21.30;53.00;;;;;;4986453;28;20069;-85
2023/07/31 03:38:35;;;;;;;5.93;2.58;;;21.30;53.00;;;;;;4980061;28;20054;-86
2023/07/31 03:41:06;;;;;;;5.22;2.65;;;21.30;53.00;;;;;;4983926;28;20500;-87
2023/07/31 03:43:34;;;;;;;6.00;2.67;;;21.30;52.90;;;;;;4984705;28;20050;-84
2023/07/31 03:46:02;;;;;;;9.52;2.95;;;21.30;52.80;;;;;;4985549;28;20501;-82
2023/07/31 03:48:29;;;;;;;6.45;3.05;;;21.40;52.80;;;;;;4985058;28;20054;-83
2023/07/31 03:50:56;;;;;;;5.85;2.53;;;21.30;52.70;;;;;;4986590;28;20069;-83
2023/07/31 03:53:24;;;;;;;5.78;3.03;;;21.40;52.70;;;;;;4986914;28;20061;-82
2023/07/31 03:55:51;;;;;;;9.13;3.17;;;21.40;52.70;;;;;;4983932;28;20529;-84
2023/07/31 03:58:19;;;;;;;5.50;2.50;;;21.40;52.70;;;;;;4984104;28;20510;-86
2023/07/31 04:00:48;;;;;;;4.85;2.53;;;21.40;52.70;;;;;;4984939;28;20065;-86
2023/07/31 04:03:15;;;;;;;4.28;2.35;;;21.40;52.70;;;;;;4988740;28;20369;-84
2023/07/31 04:05:43;;;;;;;9.55;2.90;;;21.40;52.70;;;;;;4984589;28;20054;-84
2023/07/31 04:08:10;;;;;;;5.07;2.63;;;21.40;52.70;;;;;;4983418;28;20065;-86
2023/07/31 04:10:38;;;;;;;6.85;2.80;;;21.40;52.80;;;;;;4986685;28;20053;-83
2023/07/31 04:13:05;;;;;;;5.00;2.63;;;21.40;52.80;;;;;;4983279;28;20061;-83
2023/07/31 04:15:32;;;;;;;7.30;2.90;;;21.40;52.60;;;;;;4985983;28;20057;-83
2023/07/31 04:18:01;;;;;;;5.75;3.20;;;21.40;52.60;;;;;;4986235;28;20053;-86
2023/07/31 04:20:28;;;;;;;6.28;2.85;;;21.40;52.70;;;;;;4984428;28;20465;-83
2023/07/31 04:22:55;;;;;;;6.05;2.80;;;21.40;52.60;;;;;;4983797;28;20413;-84
2023/07/31 04:25:23;;;;;;;8.10;2.47;;;21.40;52.60;;;;;;4984269;28;20494;-83
2023/07/31 04:27:50;;;;;;;5.00;2.78;;;21.40;52.60;;;;;;4984122;28;20070;-84
2023/07/31 04:30:17;;;;;;;4.97;2.65;;;21.40;52.60;;;;;;4984181;28;20422;-82
2023/07/31 04:32:45;;;;;;;6.15;3.10;;;21.40;52.50;;;;;;4985085;28;20433;-83
2023/07/31 04:35:13;;;;;;;6.00;3.33;;;21.40;52.60;;;;;;4984367;28;20505;-84
2023/07/31 04:37:41;;;;;;;7.30;3.42;;;21.40;52.60;;;;;;4983710;28;20403;-84
2023/07/31 04:40:09;;;;;;;6.85;2.65;;;21.40;52.60;;;;;;4984056;28;20050;-86
2023/07/31 04:42:36;;;;;;;5.53;2.60;;;21.40;52.50;;;;;;4983727;28;20386;-84
2023/07/31 04:45:04;;;;;;;5.43;2.22;;;21.40;52.50;;;;;;4984611;28;20506;-84
2023/07/31 04:47:32;;;;;;;6.18;3.03;;;21.40;52.60;;;;;;4984072;28;20054;-84
2023/07/31 04:49:59;;;;;;;9.35;2.95;;;21.40;52.60;;;;;;4983589;28;20050;-84
2023/07/31 04:52:28;;;;;;;8.82;2.97;;;21.40;52.60;;;;;;4983025;28;20054;-87
2023/07/31 04:54:55;;;;;;;6.75;2.60;;;21.40;52.50;;;;;;4984129;28;20566;-85
2023/07/31 04:57:22;;;;;;;7.93;2.97;;;21.40;52.50;;;;;;4981615;28;20062;-84
2023/07/31 04:59:49;;;;;;;6.65;2.55;;;21.40;52.60;;;;;;4984121;28;20153;-85
2023/07/31 05:02:17;;;;;;;6.20;2.88;;;21.40;52.80;;;;;;4983917;28;20058;-84
2023/07/31 05:04:44;;;;;;;4.28;2.63;;;21.40;52.60;;;;;;4982888;28;20418;-87
2023/07/31 05:07:11;;;;;;;5.25;2.30;;;21.40;52.50;;;;;;4983929;28;20046;-85
2023/07/31 05:09:40;;;;;;;4.53;2.80;;;21.40;52.60;;;;;;4982514;28;20418;-86
2023/07/31 05:12:09;;;;;;;4.65;2.45;;;21.40;52.70;;;;;;4982161;28;20054;-85
2023/07/31 05:14:38;;;;;;;9.30;3.10;;;21.50;52.70;;;;;;4982246;28;20057;-86
2023/07/31 05:17:06;;;;;;;7.05;2.72;;;21.50;52.80;;;;;;4983313;28;20058;-87
2023/07/31 05:19:33;;;;;;;5.32;2.80;;;21.50;52.80;;;;;;4989092;28;20185;-89
2023/07/31 05:22:00;;;;;;;6.45;2.83;;;21.40;52.80;;;;;;4983313;28;20066;-88
2023/07/31 05:24:28;;;;;;;6.07;2.85;;;21.50;52.90;;;;;;4982561;28;20050;-91
2023/07/31 05:26:56;;;;;;;5.32;2.78;;;21.50;52.90;;;;;;4981828;28;20065;-86
2023/07/31 05:29:24;;;;;;;8.45;3.30;;;21.50;52.90;;;;;;4983091;28;20399;-86
2023/07/31 05:31:51;;;;;;;6.07;3.08;;;21.50;53.00;;;;;;4981335;28;20433;-86
2023/07/31 05:34:18;;;;;;;5.70;2.65;;;21.50;53.00;;;;;;4983249;28;20406;-85
2023/07/31 05:36:45;;;;;;;5.13;2.47;;;21.50;53.10;;;;;;4983109;28;20061;-85
2023/07/31 05:39:13;;;;;;;6.53;2.78;;;21.50;53.10;;;;;;4982319;28;20069;-87
2023/07/31 05:41:40;;;;;;;5.55;2.50;;;21.60;53.20;;;;;;4981178;28;20403;-85
2023/07/31 05:44:09;;;;;;;5.47;2.70;;;21.50;53.20;;;;;;4983474;28;20058;-89
2023/07/31 05:46:36;;;;;;;5.32;2.80;;;21.60;53.30;;;;;;4982415;28;20505;-86
2023/07/31 05:49:03;;;;;;;4.68;2.67;;;21.60;53.30;;;;;;4982136;28;20066;-85
2023/07/31 05:51:30;;;;;;;5.43;2.40;;;21.60;53.30;;;;;;4985290;28;20054;-85
2023/07/31 05:53:58;;;;;;;5.40;3.03;;;21.60;53.30;;;;;;4984092;28;20045;-86
2023/07/31 05:56:27;;;;;;;4.68;2.67;;;21.70;53.30;;;;;;4981106;28;20050;-86
2023/07/31 05:58:54;;;;;;;3.08;2.30;;;21.60;53.30;;;;;;4981293;28;20057;-85
2023/07/31 06:01:22;;;;;;;4.30;2.80;;;21.70;53.40;;;;;;4982577;28;20410;-86
2023/07/31 06:03:50;;;;;;;5.22;3.05;;;21.70;53.40;;;;;;4981971;28;20058;-85
2023/07/31 06:06:17;;;;;;;6.53;3.28;;;21.70;53.50;;;;;;4982253;28;20428;-85
2023/07/31 06:08:44;;;;;;;6.00;3.05;;;21.70;53.50;;;;;;4983810;28;20200;-86
2023/07/31 06:11:11;;;;;;;6.18;3.05;;;21.70;53.50;;;;;;4981486;28;20073;-85
2023/07/31 06:13:39;;;;;;;6.18;3.63;;;21.70;53.40;;;;;;4981681;28;20057;-86
2023/07/31 06:16:06;;;;;;;6.40;3.05;;;21.70;53.40;;;;;;4982119;28;20061;-86
2023/07/31 06:18:35;;;;;;;4.57;2.80;;;21.80;53.40;;;;;;4982050;28;20073;-85
2023/07/31 06:21:02;;;;;;;5.20;2.72;;;21.70;53.30;;;;;;4981291;28;20735;-85
2023/07/31 06:23:29;;;;;;;9.52;3.88;;;21.80;53.40;;;;;;4981959;28;20711;-86
2023/07/31 06:25:56;;;;;;;7.22;3.47;;;21.70;53.80;;;;;;4980502;28;20050;-85
2023/07/31 06:28:29;;;;;;;9.18;3.13;;;21.80;54.00;;;;;;4982835;28;20502;-85
2023/07/31 06:30:56;;;;;;;6.13;3.03;;;21.80;54.10;;;;;;4981914;28;20050;-86
2023/07/31 06:33:23;;;;;;;4.35;2.67;;;21.70;54.00;;;;;;4982307;28;20065;-85
2023/07/31 06:35:52;;;;;;;5.18;3.15;;;21.80;54.70;;;;;;4981291;28;20069;-84
2023/07/31 06:38:23;;;;;;;5.10;2.92;;;21.80;54.40;;;;;;4981971;28;20469;-84
2023/07/31 06:40:50;;;;;;;8.68;3.28;;;21.70;54.40;;;;;;4978389;28;20112;-85
2023/07/31 06:43:17;;;;;;;8.10;3.00;;;21.70;54.40;;;;;;4980269;28;20069;-85
2023/07/31 06:45:45;;;;;;;4.13;2.65;;;21.70;54.60;;;;;;4982467;28;20062;-87
2023/07/31 06:48:12;;;;;;;5.20;2.55;;;21.70;54.80;;;;;;4982564;28;20054;-83
2023/07/31 06:50:40;;;;;;;8.85;2.90;;;21.70;54.90;;;;;;4982279;28;20545;-84
2023/07/31 06:53:08;;;;;;;6.85;3.00;;;21.70;55.10;;;;;;4982623;28;20073;-89
2023/07/31 06:55:36;;;;;;;5.38;2.97;;;21.70;55.20;;;;;;4981500;28;20386;-87
2023/07/31 06:58:03;;;;;;;5.85;2.95;;;21.70;55.30;;;;;;4980535;28;20050;-84
2023/07/31 07:00:31;;;;;;;4.20;2.78;;;21.70;55.50;;;;;;4983817;28;20410;-85
2023/07/31 07:02:58;;;;;;;5.65;3.10;;;21.60;55.60;;;;;;4980511;28;20069;-86
2023/07/31 07:05:25;;;;;;;7.28;3.17;;;21.70;55.80;;;;;;4981929;28;20134;-83
2023/07/31 07:07:52;;;;;;;4.63;3.00;;;21.60;55.80;;;;;;4982661;28;20490;-83
2023/07/31 07:10:21;;;;;;;6.22;2.80;;;21.70;56.00;;;;;;4979683;28;20050;-86
2023/07/31 07:12:49;;;;;;;8.00;3.20;;;21.70;56.00;;;;;;4979727;28;20054;-86
2023/07/31 07:15:17;;;;;;;11.98;3.90;;;21.70;56.10;;;;;;4980730;28;20042;-87
2023/07/31 07:17:44;;;;;;;5.88;2.72;;;21.70;56.20;;;;;;4981202;28;20513;-90
2023/07/31 07:20:11;;;;;;;7.53;3.47;;;21.60;56.20;;;;;;4980003;28;20062;-87
2023/07/31 07:22:39;;;;;;;5.95;3.15;;;21.60;56.30;;;;;;4980083;28;20054;-88
2023/07/31 07:25:07;;;;;;;5.78;3.05;;;21.70;56.30;;;;;;4980305;28;20046;-88
2023/07/31 07:27:36;;;;;;;6.93;3.13;;;21.70;56.50;;;;;;4980288;28;20066;-87
2023/07/31 07:30:04;;;;;;;6.78;3.05;;;21.70;56.70;;;;;;4981736;28;20055;-87
2023/07/31 07:32:31;;;;;;;8.50;3.90;;;21.70;56.80;;;;;;4981255;28;20054;-88
2023/07/31 07:34:59;;;;;;;7.28;3.28;;;21.80;56.80;;;;;;4981660;28;20078;-89
2023/07/31 07:37:26;;;;;;;6.38;3.10;;;21.80;56.70;;;;;;4980421;28;20081;-86
2023/07/31 07:39:53;;;;;;;5.57;3.13;;;21.80;56.70;;;;;;4980312;28;20414;-89
2023/07/31 07:42:21;;;;;;;8.25;3.40;;;21.80;56.50;;;;;;4979438;28;20051;-86
2023/07/31 07:44:49;;;;;;;7.07;2.85;;;21.90;56.40;;;;;;4979035;28;20058;-87
2023/07/31 07:47:17;;;;;;;7.15;3.85;;;21.90;56.20;;;;;;4981883;28;20478;-88
2023/07/31 07:49:44;;;;;;;5.78;3.45;;;21.90;56.10;;;;;;4980126;28;20063;-88
2023/07/31 07:52:11;;;;;;;6.53;3.40;;;21.90;56.00;;;;;;4977940;28;20470;-88
2023/07/31 07:54:39;;;;;;;9.20;4.03;;;22.00;55.90;;;;;;4979911;28;20065;-87
2023/07/31 07:57:06;;;;;;;8.43;3.42;;;22.00;55.70;;;;;;4979980;28;20395;-88
2023/07/31 07:59:33;;;;;;;9.70;4.07;;;21.90;55.60;;;;;;4981448;28;20077;-89
2023/07/31 08:02:02;;;;;;;10.02;4.07;;;21.90;55.70;;;;;;4982360;28;20533;-86
2023/07/31 08:04:29;;;;;;;9.45;4.40;;;21.90;55.70;;;;;;4983063;28;20418;-88
2023/07/31 08:06:56;;;;;;;9.90;3.90;;;22.00;55.90;;;;;;4983460;28;20532;-88
2023/07/31 08:09:23;;;;;;;7.90;3.45;;;21.90;56.20;;;;;;4984441;28;20050;-89
2023/07/31 08:11:51;;;;;;;11.40;3.95;;;21.90;56.20;;;;;;4983459;28;20066;-88
2023/07/31 08:14:18;;;;;;;6.85;3.67;;;21.90;56.40;;;;;;4984526;28;20061;-88
2023/07/31 08:16:45;;;;;;;8.98;3.30;;;21.90;56.50;;;;;;4983898;28;20046;-88
2023/07/31 08:19:14;;;;;;;9.63;4.28;;;21.90;56.50;;;;;;4985037;28;20069;-88
2023/07/31 08:21:41;;;;;;;10.50;4.10;;;21.90;56.60;;;;;;4983535;28;20057;-87
2023/07/31 08:24:08;;;;;;;6.68;3.63;;;21.90;56.60;;;;;;4985301;28;20058;-86
2023/07/31 08:26:36;;;;;;;7.45;3.85;;;21.90;56.60;;;;;;4983454;28;20058;-86
2023/07/31 08:29:03;;;;;;;6.75;3.75;;;21.90;56.70;;;;;;4984124;28;20054;-86
2023/07/31 08:31:31;;;;;;;7.82;3.30;;;21.90;56.70;;;;;;4983570;28;20054;-86
2023/07/31 08:33:58;;;;;;;6.15;3.78;;;21.90;56.80;;;;;;4983312;28;20757;-85
2023/07/31 08:36:27;;;;;;;9.38;4.00;;;21.80;56.90;;;;;;4990886;28;20049;-86
2023/07/31 08:38:54;;;;;;;6.20;3.40;;;21.80;57.10;;;;;;4982528;28;20047;-87
2023/07/31 08:41:21;;;;;;;7.60;3.83;;;21.80;57.10;;;;;;4982672;28;20062;-86
2023/07/31 08:43:51;;;;;;;5.95;3.50;;;21.90;57.40;;;;;;4982953;28;20466;-86
2023/07/31 08:46:19;;;;;;;6.97;3.40;;;21.80;57.50;;;;;;4990092;28;20053;-87
2023/07/31 08:48:47;;;;;;;6.10;3.45;;;21.90;57.60;;;;;;4984152;28;20489;-84
2023/07/31 08:51:15;;;;;;;5.90;3.00;;;21.90;57.60;;;;;;4982665;28;20090;-85
2023/07/31 08:53:44;;;;;;;3.95;2.60;;;21.90;57.60;;;;;;4983518;28;20050;-84
2023/07/31 08:56:14;;;;;;;7.95;3.20;;;21.90;57.70;;;;;;4980775;28;20057;-84
2023/07/31 08:58:42;;;;;;;6.00;3.28;;;21.90;57.60;;;;;;4985482;28;20054;-84
2023/07/31 09:01:11;;;;;;;5.18;2.95;;;22.00;57.60;;;;;;4982650;28;20561;-85
2023/07/31 09:03:40;;;;;;;6.57;3.85;;;22.00;57.60;;;;;;4982784;28;20042;-87
2023/07/31 09:06:08;;;;;;;6.40;3.30;;;22.00;57.50;;;;;;4982567;28;20399;-84
2023/07/31 09:08:36;;;;;;;4.80;3.05;;;22.00;57.50;;;;;;4983362;28;20057;-86
2023/07/31 09:11:04;;;;;;;6.55;2.88;;;22.00;57.40;;;;;;4980904;28;20068;-85
2023/07/31 09:13:32;;;;;;;7.40;3.38;;;22.00;57.40;;;;;;4982528;28;20069;-84
2023/07/31 09:16:00;;;;;;;5.63;2.80;;;22.00;57.40;;;;;;4984140;28;20057;-85
2023/07/31 09:18:27;;;;;;;5.07;2.75;;;22.00;57.40;;;;;;4982578;28;20054;-85
2023/07/31 09:21:04;;;;;;;5.45;3.25;;;22.00;57.40;;;;;;4983920;28;20066;-84
2023/07/31 09:23:45;;;;;;;5.95;3.25;;;22.00;57.60;;;;;;4983341;28;20580;-84
2023/07/31 09:26:30;;;;;;;4.65;2.42;;;22.00;57.50;;;;;;4981758;28;20510;-84
2023/07/31 09:28:57;;;;;;;;;;;22.00;57.50;;;;;;4983443;28;20178;-84
2023/07/31 09:31:33;;;;;;;8.27;3.75;;;22.00;57.40;;;;;;4980876;28;19929;-84
2023/07/31 09:34:01;;;;;;;5.32;2.92;;;22.00;57.60;;;;;;4983188;28;20054;-85
2023/07/31 09:36:31;;;;;;;6.55;2.90;;;22.10;57.60;;;;;;4981618;28;20061;-87
2023/07/31 09:39:03;;;;;;;3.67;2.45;;;22.10;57.70;;;;;;4982361;28;20517;-92
2023/07/31 09:41:37;;;;;;;6.85;2.88;;;22.00;57.70;;;;;;4982098;28;20162;-89
2023/07/31 09:44:04;;;;;;;6.45;3.22;;;22.10;57.70;;;;;;4983233;28;20430;-89
2023/07/31 09:46:32;;;;;;;4.70;2.90;;;22.10;57.60;;;;;;4981370;28;20383;-89
2023/07/31 09:49:10;;;;;;;5.68;2.72;;;22.00;57.60;;;;;;4983531;28;20050;-89
2023/07/31 09:51:39;;;;;;;8.68;2.90;;;22.00;57.70;;;;;;4982865;28;20054;-90
2023/07/31 09:54:11;;;;;;;5.68;2.78;;;22.10;58.20;;;;;;4982842;28;20054;-89
2023/07/31 09:56:43;;;;;;;9.73;3.65;;;22.10;57.70;;;;;;4981136;28;20060;-91
2023/07/31 09:59:13;;;;;;;6.30;3.15;;;22.10;57.70;;;;;;4981751;28;20074;-88
2023/07/31 10:01:42;;;;;;;7.10;2.88;;;22.10;57.70;;;;;;4982486;28;20054;-88
2023/07/31 10:04:12;;;;;;;8.02;2.88;;;22.10;57.80;;;;;;4982526;28;20066;-89
2023/07/31 10:06:41;;;;;;;4.82;2.47;;;22.10;57.80;;;;;;4981528;28;20062;-90
2023/07/31 10:09:11;;;;;;;8.05;3.28;;;22.10;57.90;;;;;;4982826;28;20065;-96
2023/07/31 10:11:43;;;;;;;6.13;2.95;;;22.10;57.90;;;;;;4980790;28;20510;-88
2023/07/31 10:14:11;;;;;;;7.88;2.78;;;22.10;57.90;;;;;;4977518;28;20050;-88
2023/07/31 10:16:40;;;;;;;6.20;2.88;;;22.10;57.80;;;;;;4980034;28;20427;-87
2023/07/31 10:19:08;;;;;;;6.55;2.70;;;22.10;57.80;;;;;;4982406;28;20053;-90
2023/07/31 10:21:37;;;;;;;7.07;3.20;;;22.10;58.20;;;;;;4982897;28;20410;-89
2023/07/31 10:24:05;;;;;;;7.70;3.03;;;22.20;58.10;;;;;;4982494;28;20065;-88
2023/07/31 10:26:34;;;;;;;5.75;2.40;;;22.20;58.20;;;;;;4978945;28;20364;-89
2023/07/31 10:29:02;;;;;;;7.28;3.15;;;22.20;58.20;;;;;;4981554;28;20050;-89
2023/07/31 10:31:30;;;;;;;4.80;2.50;;;22.20;58.20;;;;;;4981264;28;20145;-88
2023/07/31 10:34:00;;;;;;;5.60;2.60;;;22.20;58.00;;;;;;4982003;28;20054;-88
2023/07/31 10:36:27;;;;;;;4.25;2.47;;;22.30;58.00;;;;;;4980668;28;20050;-89
2023/07/31 10:38:57;;;;;;;6.05;2.30;;;22.30;58.00;;;;;;4981298;28;20410;-89
2023/07/31 10:41:31;;;;;;;4.78;2.75;;;22.30;58.00;;;;;;4980988;28;20568;-89
2023/07/31 10:44:02;;;;;;;7.00;2.88;;;22.30;58.10;;;;;;4981731;28;20066;-86
2023/07/31 10:46:30;;;;;;;5.88;2.83;;;22.30;58.60;;;;;;4981581;28;20061;-87
2023/07/31 10:49:01;;;;;;;7.00;2.75;;;22.30;57.90;;;;;;4982026;28;20054;-87
2023/07/31 10:51:35;;;;;;;4.97;2.72;;;22.30;57.90;;;;;;4981326;28;20502;-87
2023/07/31 10:54:13;;;;;;;4.20;2.70;;;22.30;58.10;;;;;;4981492;28;21071;-87
2023/07/31 10:56:40;;;;;;;5.32;2.13;;;22.40;58.30;;;;;;4981996;28;20061;-87
2023/07/31 10:59:12;;;;;;;5.00;2.42;;;22.40;58.40;;;;;;4981969;28;20517;-87
2023/07/31 11:01:52;;;;;;;7.38;2.50;;;22.40;58.50;;;;;;4981167;28;20051;-87
2023/07/31 11:04:24;;;;;;;7.65;2.50;;;22.50;58.70;;;;;;4980945;28;20054;-87
2023/07/31 11:06:58;;;;;;;4.95;2.10;;;22.50;58.30;;;;;;4981693;28;20521;-87
2023/07/31 11:09:28;;;;;;;;;;;22.60;58.30;;;;;;4981828;28;20065;-86
2023/07/31 11:11:55;;;;;;;3.03;2.00;;;22.60;58.20;;;;;;4979518;28;19929;-86
2023/07/31 11:14:24;;;;;;;5.30;2.40;;;22.70;57.90;;;;;;4982536;28;20051;-85
2023/07/31 11:16:52;;;;;;;7.40;2.22;;;22.70;57.70;;;;;;4981474;28;20057;-89
2023/07/31 11:19:23;;;;;;;4.43;2.17;;;22.70;57.60;;;;;;4980644;28;20498;-89
2023/07/31 11:21:52;;;;;;;5.13;2.40;;;22.70;57.60;;;;;;4980723;28;20066;-90
2023/07/31 11:24:20;;;;;;;6.78;2.47;;;22.80;57.30;;;;;;4982153;28;20418;-87
2023/07/31 11:26:51;;;;;;;5.05;2.30;;;22.70;57.10;;;;;;4978725;28;20426;-87
2023/07/31 11:29:18;;;;;;;3.17;1.70;;;22.80;56.80;;;;;;4980632;28;20466;-90
2023/07/31 11:31:49;;;;;;;3.28;1.80;;;22.80;56.70;;;;;;4981193;28;20089;-86
2023/07/31 11:34:17;;;;;;;3.63;1.65;;;22.70;56.10;;;;;;4980730;28;20050;-89
2023/07/31 11:36:54;;;;;;;2.03;1.40;;;22.80;55.90;;;;;;4982093;28;20050;-90
2023/07/31 11:39:22;;;;;;;5.05;2.17;;;22.80;55.60;;;;;;4983104;28;20050;-90
2023/07/31 11:41:49;;;;;;;2.03;1.45;;;22.80;55.40;;;;;;4979505;28;20077;-93
2023/07/31 11:44:17;;;;;;;4.38;1.70;;;22.80;55.40;;;;;;4981580;28;20050;-89
2023/07/31 11:46:44;;;;;;;2.90;1.58;;;22.80;55.70;;;;;;4980976;28;20060;-94
2023/07/31 11:49:13;;;;;;;3.40;1.70;;;22.80;55.40;;;;;;4985222;28;20046;-91
2023/07/31 11:51:41;;;;;;;2.83;1.35;;;22.80;55.00;;;;;;4984658;28;20557;-92
2023/07/31 11:54:08;;;;;;;3.83;1.83;;;22.80;55.00;;;;;;4983453;28;20060;-90
2023/07/31 11:56:36;;;;;;;3.28;1.50;;;22.80;55.00;;;;;;4982148;28;20411;-92
2023/07/31 11:59:05;;;;;;;2.65;1.52;;;22.80;55.20;;;;;;4984201;28;20058;-91
2023/07/31 12:01:33;;;;;;;3.65;1.90;;;22.80;55.50;;;;;;4982588;28;20050;-91
2023/07/31 12:04:01;;;;;;;2.97;1.38;;;22.90;55.80;;;;;;4983583;28;20058;-91
2023/07/31 12:06:36;;;;;;;1.58;1.27;;;22.80;55.90;;;;;;4982118;28;20050;-91
2023/07/31 12:09:05;;;;;;;2.55;1.50;;;22.90;56.20;;;;;;4984330;28;20081;-92
2023/07/31 12:11:32;;;;;;;2.58;1.50;;;22.90;56.30;;;;;;4983422;28;20054;-92
2023/07/31 12:14:00;;;;;;;3.20;1.50;;;23.00;56.60;;;;;;4982257;28;20490;-91
2023/07/31 12:16:29;;;;;;;3.63;1.42;;;23.00;56.60;;;;;;4983262;28;20052;-91
2023/07/31 12:18:56;;;;;;;2.78;1.40;;;23.10;56.70;;;;;;4983096;28;20054;-90
2023/07/31 12:21:23;;;;;;;2.30;1.48;;;23.10;56.70;;;;;;4983871;28;20395;-92
2023/07/31 12:23:53;;;;;;;2.20;1.50;;;23.20;56.90;;;;;;4981523;28;20517;-90
2023/07/31 12:26:20;;;;;;;3.00;1.25;;;23.20;57.00;;;;;;4980940;28;20103;-89
2023/07/31 12:28:49;;;;;;;3.55;1.38;;;23.30;56.90;;;;;;4982939;28;20047;-89
2023/07/31 12:31:19;;;;;;;2.42;1.42;;;23.30;56.80;;;;;;4982772;28;20058;-91
2023/07/31 12:33:47;;;;;;;1.58;1.30;;;23.40;56.20;;;;;;4982761;28;20058;-90
2023/07/31 12:36:16;;;;;;;3.00;1.70;;;23.50;56.10;;;;;;4980896;28;20054;-89
2023/07/31 12:38:43;;;;;;;6.75;1.67;;;23.60;55.70;;;;;;4984786;28;20046;-90
2023/07/31 12:41:12;;;;;;;3.25;1.65;;;23.60;55.30;;;;;;4981335;28;20589;-90
2023/07/31 12:43:42;;;;;;;4.40;2.15;;;23.60;54.90;;;;;;4980876;28;20456;-90
2023/07/31 12:46:10;;;;;;;4.40;2.35;;;23.70;54.40;;;;;;4983368;28;20051;-90
2023/07/31 12:48:39;;;;;;;3.97;2.10;;;23.70;54.30;;;;;;4982025;28;20470;-91
2023/07/31 12:51:07;;;;;;;3.47;2.67;;;23.70;54.00;;;;;;4979568;28;20053;-91
2023/07/31 12:53:34;;;;;;;5.32;2.78;;;23.70;53.60;;;;;;4981762;28;20050;-95